createdAt,value
2022-10-05T00:01:25.683Z,9.80
2022-10-05T00:03:58.974Z,8.77
2022-10-05T00:06:29.581Z,8.67
2022-10-05T00:08:57.610Z,10.40
2022-10-05T00:11:25.691Z,10.33
2022-10-05T00:13:53.793Z,10.27
2022-10-05T00:16:23.300Z,9.23
2022-10-05T00:18:53.944Z,10.43
2022-10-05T00:21:23.902Z,10.37
2022-10-05T00:23:52.258Z,10.13
2022-10-05T00:26:22.605Z,7.90
2022-10-05T00:28:50.652Z,7.83
2022-10-05T00:31:22.189Z,8.77
2022-10-05T00:33:52.814Z,12.33
2022-10-05T00:36:20.867Z,8.17
2022-10-05T00:38:49.042Z,8.03
2022-10-05T00:41:22.519Z,13.93
2022-10-05T00:44:08.781Z,8.87
2022-10-05T00:46:50.851Z,10.10
2022-10-05T00:49:30.562Z,8.90
2022-10-05T00:52:12.113Z,9.20
2022-10-05T00:54:46.345Z,10.70
2022-10-05T00:57:29.366Z,8.87
2022-10-05T01:00:06.314Z,9.10
2022-10-05T01:02:42.827Z,10.93
2022-10-05T01:05:17.545Z,10.37
2022-10-05T01:07:51.749Z,8.97
2022-10-05T01:10:26.669Z,9.33
2022-10-05T01:13:01.621Z,9.83
2022-10-05T01:15:36.814Z,8.73
2022-10-05T01:18:13.296Z,11.00
2022-10-05T01:20:56.151Z,12.97
2022-10-05T01:23:52.774Z,15.30
2022-10-05T01:26:35.564Z,8.67
2022-10-05T01:29:12.264Z,10.27
2022-10-05T01:31:46.701Z,11.27
2022-10-05T01:34:23.703Z,11.83
2022-10-05T01:37:01.033Z,9.67
2022-10-05T01:39:40.296Z,10.67
2022-10-05T01:42:15.202Z,11.07
2022-10-05T01:44:52.292Z,10.93
2022-10-05T01:47:25.874Z,10.13
2022-10-05T01:50:01.580Z,9.37
2022-10-05T01:52:38.529Z,9.97
2022-10-05T01:55:18.627Z,11.50
2022-10-05T01:58:03.167Z,9.47
2022-10-05T02:00:36.389Z,10.13
2022-10-05T02:03:09.172Z,9.20
2022-10-05T02:05:42.127Z,10.93
2022-10-05T02:08:16.647Z,9.03
2022-10-05T02:10:50.871Z,11.10
2022-10-05T02:13:25.795Z,11.37
2022-10-05T02:16:01.262Z,9.80
2022-10-05T02:18:35.022Z,13.63
2022-10-05T02:21:06.565Z,11.57
2022-10-05T02:23:38.906Z,8.50
2022-10-05T02:26:09.770Z,9.23
2022-10-05T02:28:42.289Z,9.37
2022-10-05T02:31:15.058Z,8.67
2022-10-05T02:33:43.287Z,10.13
2022-10-05T02:36:18.858Z,9.30
2022-10-05T02:39:00.790Z,10.23
2022-10-05T02:41:41.731Z,11.27
2022-10-05T02:44:20.465Z,10.00
2022-10-05T02:46:57.869Z,10.27
2022-10-05T02:49:34.100Z,10.53
2022-10-05T02:52:10.219Z,11.63
2022-10-05T02:54:46.612Z,10.20
2022-10-05T02:57:24.144Z,11.73
2022-10-05T02:59:59.867Z,10.87
2022-10-05T03:02:34.829Z,12.67
2022-10-05T03:05:13.914Z,11.67
2022-10-05T03:07:49.785Z,10.80
2022-10-05T03:10:27.946Z,9.93
2022-10-05T03:13:02.859Z,12.17
2022-10-05T03:15:46.258Z,10.27
2022-10-05T03:18:30.581Z,10.47
2022-10-05T03:21:11.862Z,11.27
2022-10-05T03:23:53.006Z,11.43
2022-10-05T03:26:35.230Z,13.17
2022-10-05T03:29:09.733Z,12.17
2022-10-05T03:31:41.979Z,11.23
2022-10-05T03:34:16.629Z,9.20
2022-10-05T03:36:52.159Z,10.97
2022-10-05T03:39:27.694Z,9.53
2022-10-05T03:42:03.805Z,9.03
2022-10-05T03:44:41.279Z,8.97
2022-10-05T03:47:15.705Z,9.10
2022-10-05T03:50:07.286Z,10.80
2022-10-05T03:52:40.627Z,11.60
2022-10-05T03:55:20.597Z,11.70
2022-10-05T03:57:51.486Z,9.07
2022-10-05T04:00:23.168Z,11.57
2022-10-05T04:03:04.934Z,9.83
2022-10-05T04:05:39.274Z,9.47
2022-10-05T04:08:12.847Z,9.33
2022-10-05T04:10:45.699Z,12.60
2022-10-05T04:13:18.565Z,9.93
2022-10-05T04:15:55.267Z,10.87
2022-10-05T04:18:27.407Z,10.33
2022-10-05T04:21:02.347Z,9.83
2022-10-05T04:23:41.893Z,11.40
2022-10-05T04:26:15.086Z,12.23
2022-10-05T04:28:51.574Z,10.53
2022-10-05T04:31:38.881Z,9.90
2022-10-05T04:34:25.486Z,13.50
2022-10-05T04:37:00.928Z,10.43
2022-10-05T04:39:40.744Z,10.57
2022-10-05T04:42:15.827Z,9.53
2022-10-05T04:44:59.125Z,11.70
2022-10-05T04:47:51.950Z,10.30
2022-10-05T04:50:32.200Z,13.03
2022-10-05T04:53:16.015Z,14.27
2022-10-05T04:55:54.309Z,13.50
2022-10-05T04:58:32.964Z,9.47
2022-10-05T05:01:15.157Z,14.87
2022-10-05T05:03:56.916Z,10.70
2022-10-05T05:06:36.237Z,12.17
2022-10-05T05:09:25.626Z,11.97
2022-10-05T05:12:17.962Z,10.63
2022-10-05T05:15:16.146Z,10.50
2022-10-05T05:18:07.619Z,10.57
2022-10-05T05:20:49.450Z,11.40
2022-10-05T05:23:24.942Z,13.47
2022-10-05T05:26:06.582Z,12.57
2022-10-05T05:28:43.386Z,12.13
2022-10-05T05:31:19.394Z,13.73
2022-10-05T05:33:58.284Z,15.23
2022-10-05T05:36:40.361Z,13.00
2022-10-05T05:39:22.945Z,13.57
2022-10-05T05:42:00.129Z,13.77
2022-10-05T05:44:37.823Z,15.90
2022-10-05T05:47:16.235Z,17.23
2022-10-05T05:49:56.669Z,14.30
2022-10-05T05:52:31.639Z,14.93
2022-10-05T05:55:06.038Z,13.50
2022-10-05T05:57:41.960Z,15.90
2022-10-05T06:00:21.245Z,14.77
2022-10-05T06:03:01.746Z,14.20
2022-10-05T06:05:34.095Z,12.60
2022-10-05T06:08:13.338Z,18.60
2022-10-05T06:10:46.278Z,13.70
2022-10-05T06:13:21.599Z,15.03
2022-10-05T06:15:55.750Z,14.83
2022-10-05T06:18:24.732Z,14.40
2022-10-05T06:21:00.948Z,16.47
2022-10-05T06:23:35.506Z,15.37
2022-10-05T06:26:22.504Z,16.13
2022-10-05T06:28:57.641Z,15.40
2022-10-05T06:31:41.184Z,19.57
2022-10-05T06:34:21.642Z,12.93
2022-10-05T06:36:54.261Z,15.27
2022-10-05T06:39:44.246Z,13.37
2022-10-05T06:42:24.131Z,14.30
2022-10-05T06:45:31.436Z,13.37
2022-10-05T06:48:26.261Z,15.07
2022-10-05T06:51:12.399Z,14.60
2022-10-05T06:54:10.383Z,17.13
2022-10-05T06:56:46.565Z,17.90
2022-10-05T06:59:24.751Z,13.50
2022-10-05T07:02:05.710Z,14.43
2022-10-05T07:04:55.018Z,16.77
2022-10-05T07:07:30.694Z,15.83
2022-10-05T07:10:11.588Z,14.80
2022-10-05T07:12:54.885Z,14.10
2022-10-05T07:15:43.944Z,20.10
2022-10-05T07:18:35.883Z,17.03
2022-10-05T07:21:14.458Z,14.13
2022-10-05T07:23:51.966Z,16.47
2022-10-05T07:26:27.643Z,13.53
2022-10-05T07:29:19.127Z,14.60
2022-10-05T07:31:56.898Z,14.67
2022-10-05T07:34:39.985Z,16.10
2022-10-05T07:37:31.491Z,16.60
2022-10-05T07:40:09.742Z,14.17
2022-10-05T07:42:51.990Z,14.63
2022-10-05T07:45:29.787Z,15.47
2022-10-05T07:48:02.078Z,13.53
2022-10-05T07:50:36.811Z,12.93
2022-10-05T07:53:12.765Z,15.87
2022-10-05T07:55:46.037Z,14.23
2022-10-05T07:58:24.431Z,13.37
2022-10-05T08:01:08.054Z,15.07
2022-10-05T08:03:49.359Z,17.17
2022-10-05T08:06:45.415Z,12.50
2022-10-05T08:09:30.409Z,14.63
2022-10-05T08:12:08.266Z,14.60
2022-10-05T08:14:44.771Z,13.07
2022-10-05T08:17:23.983Z,12.40
2022-10-05T08:20:04.274Z,13.83
2022-10-05T08:22:45.637Z,12.93
2022-10-05T08:25:21.019Z,13.60
2022-10-05T08:27:53.973Z,14.30
2022-10-05T08:30:22.182Z,12.47
2022-10-05T08:32:55.493Z,14.83
2022-10-05T08:35:31.361Z,16.00
2022-10-05T08:38:02.094Z,13.07
2022-10-05T08:41:04.187Z,12.50
2022-10-05T08:44:06.246Z,12.87
2022-10-05T08:46:58.165Z,11.27
2022-10-05T08:49:59.601Z,13.10
2022-10-05T08:52:29.869Z,14.50
2022-10-05T08:55:31.153Z,11.03
2022-10-05T08:58:38.662Z,13.27
2022-10-05T09:01:15.683Z,14.13
2022-10-05T09:04:08.462Z,10.67
2022-10-05T09:07:18.752Z,12.77
2022-10-05T09:10:38.476Z,11.57
2022-10-05T09:13:26.837Z,12.00
2022-10-05T09:16:10.438Z,12.43
2022-10-05T09:18:53.798Z,14.33
2022-10-05T09:21:33.901Z,11.70
2022-10-05T09:24:16.398Z,11.23
2022-10-05T09:26:46.213Z,12.17
2022-10-05T09:29:52.447Z,12.13
2022-10-05T09:32:43.347Z,13.47
2022-10-05T09:35:39.202Z,11.20
2022-10-05T09:38:20.822Z,11.40
2022-10-05T09:41:24.739Z,10.70
2022-10-05T09:44:21.556Z,10.47
2022-10-05T09:47:22.699Z,10.87
2022-10-05T09:50:17.744Z,13.03
2022-10-05T09:53:05.833Z,9.70
2022-10-05T09:56:09.337Z,10.30
2022-10-05T09:59:26.015Z,9.70
2022-10-05T10:02:21.237Z,9.80
2022-10-05T10:05:07.975Z,8.83
2022-10-05T10:07:58.803Z,9.07
2022-10-05T10:10:59.006Z,9.53
2022-10-05T10:13:56.542Z,8.50
2022-10-05T10:16:41.609Z,8.07
2022-10-05T10:19:43.784Z,8.90
2022-10-05T10:22:28.531Z,9.03
2022-10-05T10:25:20.554Z,8.33
2022-10-05T10:28:10.032Z,7.30
2022-10-05T10:30:54.041Z,7.60
2022-10-05T10:33:47.293Z,7.80
2022-10-05T10:36:21.902Z,7.70
2022-10-05T10:38:58.499Z,9.97
2022-10-05T10:42:01.538Z,11.30
2022-10-05T10:45:28.593Z,9.17
2022-10-05T10:48:04.940Z,8.20
2022-10-05T10:50:53.566Z,8.47
2022-10-05T10:53:45.199Z,9.43
2022-10-05T10:56:36.951Z,8.57
2022-10-05T10:59:45.359Z,8.50
2022-10-05T11:02:37.331Z,8.33
2022-10-05T11:05:19.212Z,8.10
2022-10-05T11:08:03.910Z,7.90
2022-10-05T11:10:48.586Z,7.57
2022-10-05T11:13:44.048Z,7.50
2022-10-05T11:16:43.915Z,7.03
2022-10-05T11:19:59.561Z,6.87
2022-10-05T11:22:56.019Z,7.20
2022-10-05T11:26:02.849Z,8.27
2022-10-05T11:29:09.590Z,10.83
2022-10-05T11:32:05.442Z,6.40
2022-10-05T11:35:04.603Z,5.57
2022-10-05T11:37:58.331Z,5.73
2022-10-05T11:41:04.956Z,5.73
2022-10-05T11:44:09.846Z,5.07
2022-10-05T11:46:46.074Z,5.37
2022-10-05T11:49:33.597Z,5.10
2022-10-05T11:52:09.898Z,4.87
2022-10-05T11:55:11.133Z,7.00
2022-10-05T11:57:48.634Z,4.80
2022-10-05T12:00:20.882Z,4.57
2022-10-05T12:03:19.340Z,4.70
2022-10-05T12:06:04.738Z,4.70
2022-10-05T12:08:43.819Z,4.53
2022-10-05T12:11:34.483Z,4.60
2022-10-05T12:14:07.882Z,4.57
2022-10-05T12:16:44.080Z,6.20
2022-10-05T12:19:19.162Z,4.40
2022-10-05T12:21:51.219Z,5.27
2022-10-05T12:24:27.934Z,5.20
2022-10-05T12:27:00.317Z,4.53
2022-10-05T12:29:36.226Z,4.73
2022-10-05T12:32:08.359Z,4.50
2022-10-05T12:34:49.658Z,4.10
2022-10-05T12:37:38.349Z,4.40
2022-10-05T12:40:19.684Z,7.13
2022-10-05T12:42:54.642Z,4.73
2022-10-05T12:45:30.946Z,5.07
2022-10-05T12:48:20.423Z,5.87
2022-10-05T12:50:51.390Z,5.07
2022-10-05T12:53:28.625Z,4.40
2022-10-05T12:56:04.858Z,5.63
2022-10-05T12:58:43.803Z,4.03
2022-10-05T13:01:25.565Z,5.13
2022-10-05T13:03:59.714Z,6.03
2022-10-05T13:06:41.665Z,6.47
2022-10-05T13:09:14.486Z,4.63
2022-10-05T13:11:47.238Z,4.63
2022-10-05T13:14:38.610Z,6.50
2022-10-05T13:17:13.951Z,4.10
2022-10-05T13:19:47.201Z,4.20
2022-10-05T13:22:32.353Z,4.43
2022-10-05T13:25:25.778Z,4.80
2022-10-05T13:28:06.074Z,4.30
2022-10-05T13:30:34.858Z,5.30
2022-10-05T13:33:08.035Z,3.97
2022-10-05T13:35:44.958Z,8.60
2022-10-05T13:38:26.804Z,3.90
2022-10-05T13:41:05.057Z,5.43
2022-10-05T13:43:43.985Z,4.60
2022-10-05T13:46:24.437Z,4.17
2022-10-05T13:49:01.205Z,4.57
2022-10-05T13:51:37.338Z,4.07
2022-10-05T13:54:16.219Z,4.93
2022-10-05T13:56:49.516Z,4.63
2022-10-05T13:59:25.959Z,4.97
2022-10-05T14:01:59.369Z,4.47
2022-10-05T14:04:31.095Z,5.80
2022-10-05T14:07:22.587Z,5.53
2022-10-05T14:09:52.377Z,4.53
2022-10-05T14:12:22.893Z,5.03
2022-10-05T14:14:52.453Z,4.40
2022-10-05T14:17:39.291Z,5.07
2022-10-05T14:20:28.067Z,3.90
2022-10-05T14:22:59.457Z,3.50
2022-10-05T14:25:30.457Z,3.20
2022-10-05T14:28:05.037Z,5.37
2022-10-05T14:30:35.010Z,6.53
2022-10-05T14:33:16.646Z,5.00
2022-10-05T14:35:50.066Z,5.20
2022-10-05T14:38:21.975Z,4.03
2022-10-05T14:41:17.183Z,5.20
2022-10-05T14:43:53.500Z,5.03
2022-10-05T14:46:28.210Z,5.93
2022-10-05T14:49:22.084Z,5.57
2022-10-05T14:51:51.121Z,8.03
2022-10-05T14:54:30.166Z,5.30
2022-10-05T14:57:25.177Z,5.60
2022-10-05T15:00:10.365Z,6.43
2022-10-05T15:02:55.534Z,5.13
2022-10-05T15:05:31.349Z,3.73
2022-10-05T15:08:13.186Z,4.80
2022-10-05T15:10:45.006Z,6.80
2022-10-05T15:13:18.297Z,5.63
2022-10-05T15:15:51.962Z,9.43
2022-10-05T15:18:34.841Z,4.90
2022-10-05T15:21:16.679Z,3.83
2022-10-05T15:23:50.107Z,4.57
2022-10-05T15:26:29.817Z,3.70
2022-10-05T15:29:06.870Z,5.57
2022-10-05T15:31:44.211Z,4.97
2022-10-05T15:34:19.569Z,5.37
2022-10-05T15:36:53.871Z,4.70
2022-10-05T15:39:29.222Z,4.93
2022-10-05T15:42:01.859Z,5.60
2022-10-05T15:44:46.880Z,5.27
2022-10-05T15:47:22.428Z,4.40
2022-10-05T15:50:00.658Z,5.97
2022-10-05T15:52:32.679Z,6.40
2022-10-05T15:55:27.775Z,5.27
2022-10-05T15:58:12.650Z,5.43
2022-10-05T16:00:47.501Z,5.63
2022-10-05T16:03:23.273Z,4.50
2022-10-05T16:06:13.394Z,5.63
2022-10-05T16:09:01.642Z,4.97
2022-10-05T16:11:38.685Z,6.40
2022-10-05T16:14:27.903Z,5.17
2022-10-05T16:17:09.497Z,4.17
2022-10-05T16:19:46.749Z,5.33
2022-10-05T16:22:23.046Z,5.60
2022-10-05T16:25:05.826Z,4.60
2022-10-05T16:27:53.218Z,5.37
2022-10-05T16:30:23.520Z,5.70
2022-10-05T16:32:59.573Z,8.80
2022-10-05T16:35:39.718Z,6.60
2022-10-05T16:38:18.656Z,7.57
2022-10-05T16:41:01.941Z,5.57
2022-10-05T16:43:41.249Z,5.03
2022-10-05T16:46:20.884Z,6.17
2022-10-05T16:49:04.034Z,6.00
2022-10-05T16:51:40.242Z,4.20
2022-10-05T16:54:19.099Z,4.60
2022-10-05T16:56:52.158Z,5.00
2022-10-05T17:03:18.727Z,8.47
2022-10-05T17:06:25.974Z,5.13
2022-10-05T17:12:02.153Z,4.57
2022-10-05T17:14:43.866Z,4.87
2022-10-05T17:17:43.762Z,6.00
2022-10-05T17:20:32.277Z,6.77
2022-10-05T17:23:05.790Z,5.93
2022-10-05T17:25:43.170Z,5.27
2022-10-05T17:28:24.784Z,5.17
2022-10-05T17:31:09.859Z,4.90
2022-10-05T17:34:14.117Z,4.37
2022-10-05T17:36:47.459Z,4.80
2022-10-05T17:39:18.219Z,5.00
2022-10-05T17:41:46.709Z,4.27
2022-10-05T17:44:32.581Z,3.90
2022-10-05T17:47:03.834Z,4.30
2022-10-05T17:50:17.170Z,4.57
2022-10-05T17:53:03.234Z,6.50
2022-10-05T17:55:44.696Z,5.30
2022-10-05T17:59:01.538Z,4.40
2022-10-05T18:01:32.467Z,3.93
2022-10-05T18:04:34.411Z,4.30
2022-10-05T18:07:06.382Z,4.17
2022-10-05T18:09:54.657Z,3.90
2022-10-05T18:12:39.797Z,7.27
2022-10-05T18:15:46.305Z,4.97
2022-10-05T18:18:56.357Z,6.57
2022-10-05T18:21:49.218Z,3.83
2022-10-05T18:24:39.840Z,3.73
2022-10-05T18:27:30.740Z,4.00
2022-10-05T18:30:14.786Z,4.27
2022-10-05T18:33:15.882Z,4.50
2022-10-05T18:35:53.599Z,5.87
2022-10-05T18:38:33.746Z,4.37
2022-10-05T18:41:09.199Z,3.97
2022-10-05T18:43:42.589Z,3.30
2022-10-05T18:46:27.242Z,5.30
2022-10-05T18:49:07.968Z,4.43
2022-10-05T18:51:48.427Z,3.57
2022-10-05T18:54:36.093Z,5.00
2022-10-05T18:57:41.907Z,3.90
2022-10-05T19:00:16.260Z,3.47
2022-10-05T19:02:49.206Z,5.20
2022-10-05T19:05:47.913Z,4.30
2022-10-05T19:08:26.027Z,4.23
2022-10-05T19:10:58.445Z,3.47
2022-10-05T19:13:43.233Z,4.00
2022-10-05T19:16:29.833Z,5.50
2022-10-05T19:19:30.811Z,3.40
2022-10-05T19:22:05.779Z,3.53
2022-10-05T19:24:47.967Z,3.43
2022-10-05T19:27:25.514Z,4.47
2022-10-05T19:30:19.898Z,5.27
2022-10-05T19:33:18.925Z,4.90
2022-10-05T19:35:58.439Z,3.93
2022-10-05T19:38:32.442Z,3.90
2022-10-05T19:41:11.527Z,4.87
2022-10-05T19:44:07.049Z,3.80
2022-10-05T19:46:50.420Z,3.33
2022-10-05T19:49:37.382Z,4.03
2022-10-05T19:52:12.757Z,5.23
2022-10-05T19:54:42.941Z,4.43
2022-10-05T19:57:18.050Z,3.20
2022-10-05T19:59:47.793Z,4.43
2022-10-05T20:02:18.033Z,4.93
2022-10-05T20:04:49.474Z,4.03
2022-10-05T20:07:21.475Z,5.47
2022-10-05T20:09:56.765Z,4.67
2022-10-05T20:12:48.260Z,3.60
2022-10-05T20:15:38.109Z,3.30
2022-10-05T20:19:06.521Z,3.40
2022-10-05T20:21:47.237Z,6.53
2022-10-05T20:24:16.900Z,3.40
2022-10-05T20:27:05.197Z,3.43
2022-10-05T20:29:38.254Z,4.43
2022-10-05T20:32:08.671Z,3.17
2022-10-05T20:34:41.811Z,5.83
2022-10-05T20:37:11.427Z,4.07
2022-10-05T20:39:39.670Z,3.60
2022-10-05T20:42:08.386Z,4.13
2022-10-05T20:44:36.761Z,5.83
2022-10-05T20:47:05.011Z,4.17
2022-10-05T20:49:35.107Z,3.67
2022-10-05T20:52:05.335Z,4.13
2022-10-05T20:54:34.358Z,4.67
2022-10-05T20:57:06.099Z,3.47
2022-10-05T20:59:39.326Z,4.17
2022-10-05T21:02:09.265Z,4.30
2022-10-05T21:04:41.628Z,4.07
2022-10-05T21:07:11.414Z,4.27
2022-10-05T21:09:40.882Z,4.30
2022-10-05T21:12:08.956Z,5.57
2022-10-05T21:14:37.679Z,3.40
2022-10-05T21:17:06.168Z,3.83
2022-10-05T21:19:38.236Z,5.30
2022-10-05T21:22:08.282Z,3.13
2022-10-05T21:24:39.078Z,4.33
2022-10-05T21:27:07.242Z,5.10
2022-10-05T21:29:36.972Z,5.97
2022-10-05T21:32:08.450Z,2.23
2022-10-05T21:34:36.675Z,5.70
2022-10-05T21:37:04.911Z,3.73
2022-10-05T21:39:33.565Z,3.30
2022-10-05T21:42:03.035Z,5.33
2022-10-05T21:44:31.061Z,6.07
2022-10-05T21:46:59.161Z,4.20
2022-10-05T21:49:28.607Z,5.80
2022-10-05T21:51:56.820Z,3.00
2022-10-05T21:54:25.419Z,3.53
2022-10-05T21:56:56.805Z,8.47
2022-10-05T21:59:30.611Z,2.90
2022-10-05T22:01:59.139Z,4.40
2022-10-05T22:04:27.194Z,5.73
2022-10-05T22:06:56.443Z,5.33
2022-10-05T22:09:24.494Z,4.80
2022-10-05T22:11:52.492Z,4.87
2022-10-05T22:14:20.971Z,4.37
2022-10-05T22:16:50.514Z,4.53
2022-10-05T22:19:20.933Z,4.90
2022-10-05T22:21:48.927Z,5.07
2022-10-05T22:24:16.923Z,3.80
2022-10-05T22:26:47.971Z,3.07
2022-10-05T22:29:18.198Z,1.80
2022-10-05T22:31:48.685Z,2.67
2022-10-05T22:34:18.916Z,2.03
2022-10-05T22:36:47.420Z,2.87
2022-10-05T22:39:16.029Z,2.60
2022-10-05T22:41:44.303Z,3.33
2022-10-05T22:44:12.315Z,2.70
2022-10-05T22:46:40.326Z,2.70
2022-10-05T22:49:08.305Z,1.83
2022-10-05T22:51:37.637Z,2.83
2022-10-05T22:54:05.958Z,2.57
2022-10-05T22:56:33.905Z,1.03
2022-10-05T22:59:01.894Z,0.90
2022-10-05T23:01:29.962Z,0.90
2022-10-05T23:03:58.210Z,0.83
2022-10-05T23:06:27.361Z,1.57
2022-10-05T23:08:56.826Z,1.90
2022-10-05T23:11:26.851Z,0.60
2022-10-05T23:13:56.843Z,0.60
2022-10-05T23:16:26.943Z,0.90
2022-10-05T23:18:55.838Z,0.90
2022-10-05T23:21:25.345Z,0.87
2022-10-05T23:23:53.403Z,3.37
2022-10-05T23:26:24.770Z,1.07
2022-10-05T23:28:53.203Z,2.67
2022-10-05T23:31:23.670Z,0.60
2022-10-05T23:33:52.470Z,1.77
2022-10-05T23:36:22.404Z,0.80
2022-10-05T23:38:50.766Z,1.97
2022-10-05T23:41:19.706Z,1.93
2022-10-05T23:43:49.710Z,0.73
2022-10-05T23:46:18.294Z,1.00
2022-10-05T23:48:46.387Z,1.23
2022-10-05T23:51:15.789Z,1.67
2022-10-05T23:53:43.854Z,1.43
2022-10-05T23:56:12.063Z,1.07
2022-10-05T23:58:40.782Z,1.40
